Time;durP1;ratioP1;P1;durP2;ratioP2;P2;SDS_P1;SDS_P2;PMS_P1;PMS_P2;Temp;Humidity;BMP_temperature;BMP_pressure;BME280_temperature;BME280_humidity;BME280_pressure;Samples;Min_cycle;Max_cycle;Signal;HPM_P1;HPM_P2
2023/01/10 01:28:55;;;;;;;4.40;3.60;;;;;;;-7.02;91.47;101474.28;31528228;27;20453;-77
2023/01/10 01:44:02;;;;;;;3.53;3.30;;;;;;;-7.08;84.56;101488.56;31542095;28;20044;-77
2023/01/10 01:59:07;;;;;;;6.37;4.10;;;;;;;-7.24;81.79;101501.78;31545624;28;20049;-77
2023/01/10 02:14:10;;;;;;;3.03;2.77;;;;;;;-7.21;81.10;101505.72;31544113;28;20063;-76
2023/01/10 02:29:43;;;;;;;4.37;2.97;;;;;;;-7.25;80.13;101505.47;31482454;28;20056;-76
2023/01/10 02:44:53;;;;;;;3.53;3.23;;;;;;;-7.32;80.35;101488.34;31410453;28;20494;-77
2023/01/10 03:00:01;;;;;;;4.43;3.07;;;;;;;-7.34;80.64;101485.97;31402568;28;20395;-78
2023/01/10 03:15:05;;;;;;;4.17;2.87;;;;;;;-7.25;78.50;101467.72;31454149;28;20064;-77
2023/01/10 03:30:11;;;;;;;7.27;3.37;;;;;;;-7.16;77.79;101457.44;31459668;28;20106;-76
2023/01/10 03:45:15;;;;;;;3.83;3.50;;;;;;;-7.21;75.95;101460.88;31436742;28;20063;-78
2023/01/10 04:00:17;;;;;;;3.47;3.17;;;;;;;-7.30;75.12;101491.47;31432238;28;20100;-78
2023/01/10 04:15:19;;;;;;;3.67;3.37;;;;;;;-7.46;74.81;101482.78;31444292;28;20052;-77
2023/01/10 04:30:21;;;;;;;3.53;3.23;;;;;;;-7.42;75.01;101493.59;31393352;28;20056;-79
2023/01/10 04:45:23;;;;;;;3.20;2.90;;;;;;;-7.63;73.86;101487.53;31482741;28;20109;-76
2023/01/10 05:00:25;;;;;;;4.80;3.73;;;;;;;-7.56;74.54;101459.06;31400834;28;20044;-78
2023/01/10 05:15:27;;;;;;;3.80;3.47;;;;;;;-7.68;74.62;101480.41;31411042;28;20060;-78
2023/01/10 05:30:29;;;;;;;2.93;2.73;;;;;;;-7.63;74.06;101477.00;31464236;28;20123;-80
2023/01/10 05:45:31;;;;;;;5.13;3.27;;;;;;;-7.43;72.40;101499.94;31375284;28;20781;-78
2023/01/10 06:00:33;;;;;;;3.43;3.23;;;;;;;-7.08;72.88;101525.50;31450486;28;20135;-78
2023/01/10 06:15:36;;;;;;;4.90;4.00;;;;;;;-6.87;69.10;101532.38;31429031;28;20078;-78
2023/01/10 06:30:40;;;;;;;8.57;5.03;;;;;;;-6.58;68.02;101557.09;31452513;28;20132;-78
2023/01/10 06:45:43;;;;;;;3.30;3.08;;;;;;;-6.34;65.26;101538.81;31454206;28;20056;-81
2023/01/10 07:00:45;;;;;;;3.20;3.00;;;;;;;-6.04;63.65;101559.03;31459108;28;20132;-81
2023/01/10 07:15:47;;;;;;;2.20;2.10;;;;;;;-5.37;61.52;101554.91;31409572;28;20444;-78
2023/01/10 07:30:49;;;;;;;5.80;3.77;;;;;;;-4.76;58.63;101561.56;31429451;28;20075;-79
2023/01/10 10:44:28;;;;;;;5.20;2.80;;;;;;;1.01;39.55;101476.16;31414940;28;20429;-71
2023/01/10 10:59:30;;;;;;;5.33;2.70;;;;;;;2.55;37.36;101480.03;31435470;28;20062;-73
2023/01/10 11:14:47;;;;;;;5.80;2.33;;;;;;;3.02;36.82;101518.06;31412178;28;20049;-73
2023/01/10 11:29:52;;;;;;;5.80;2.30;;;;;;;2.49;35.24;101529.59;31398007;28;20428;-73
2023/01/10 11:45:20;;;;;;;3.67;2.70;;;;;;;3.04;35.70;101515.81;31322081;28;20045;-72
2023/01/10 12:00:31;;;;;;;5.97;2.70;;;;;;;3.43;35.08;101509.03;31328044;28;20061;-71
2023/01/10 12:15:34;;;;;;;6.27;2.37;;;;;;;3.12;34.39;101495.34;31308323;28;20052;-74
2023/01/10 12:30:42;;;;;;;3.47;1.70;;;;;;;3.68;33.49;101507.13;31328814;28;20084;-77
2023/01/10 12:45:58;;;;;;;2.03;1.80;;;;;;;3.05;34.18;101509.34;31306531;28;20406;-76
2023/01/10 13:01:13;;;;;;;1.83;1.70;;;;;;;-0.07;37.53;101516.50;31312520;28;20061;-81
2023/01/10 13:16:41;;;;;;;4.20;3.13;;;;;;;-1.07;40.85;101537.63;31322013;28;20100;-80
2023/01/10 13:31:43;;;;;;;4.07;2.57;;;;;;;-1.71;41.25;101550.31;31304522;28;20057;-71
2023/01/10 13:46:50;;;;;;;2.27;1.80;;;;;;;-1.72;42.23;101562.84;31332197;28;20057;-84
2023/01/10 14:17:29;;;;;;;3.83;2.60;;;;;;;-2.66;45.31;101599.84;31296308;28;20469;-71
2023/01/10 14:32:39;;;;;;;2.07;1.90;;;;;;;-3.18;45.99;101617.69;31328095;28;20378;-71
2023/01/10 14:47:41;;;;;;;4.40;2.30;;;;;;;-3.78;47.36;101636.00;31317102;28;20049;-71
2023/01/10 15:02:46;;;;;;;2.07;1.90;;;;;;;-3.74;50.19;101627.50;31303462;28;20087;-72
2023/01/10 15:17:48;;;;;;;3.00;2.80;;;;;;;-4.44;49.58;101656.38;31321720;28;20108;-83
2023/01/10 15:32:53;;;;;;;2.47;2.27;;;;;;;-5.08;51.64;101673.31;31351655;28;20502;-77
2023/01/10 15:48:02;;;;;;;3.93;2.83;;;;;;;-5.49;52.82;101689.44;31319893;28;20055;-78
2023/01/10 16:03:23;;;;;;;5.90;2.53;;;;;;;-5.97;53.60;101699.69;31351316;28;20107;-82
2023/01/10 19:38:07;;;;;;;3.20;2.90;;;;;;;-10.01;97.33;101752.41;31702472;27;20422;-80
2023/01/10 19:53:09;;;;;;;2.50;2.33;;;;;;;-10.09;95.61;101765.94;31585842;28;20152;-80
2023/01/10 20:08:12;;;;;;;7.80;5.27;;;;;;;-10.16;96.80;101774.00;31614926;28;20048;-91
2023/01/10 20:23:23;;;;;;;3.43;3.17;;;;;;;-10.23;98.72;101760.28;31595178;28;20069;-91
2023/01/10 20:38:29;;;;;;;2.90;2.70;;;;;;;-10.39;97.50;101776.81;31566194;28;20102;-91
2023/01/10 20:53:32;;;;;;;;;;;;;;;-10.50;100.00;101775.06;31558932;28;20052;-90
2023/01/10 21:08:36;;;;;;;4.13;3.80;;;;;;;-10.50;100.00;101775.06;31555415;28;20011;-92
2023/01/10 21:23:38;;;;;;;4.40;3.70;;;;;;;-10.88;100.00;101796.69;31492950;28;20057;-80
2023/01/10 21:38:40;;;;;;;4.60;3.33;;;;;;;-10.61;100.00;101770.66;31539407;28;20112;-81
2023/01/10 21:53:43;;;;;;;3.23;2.93;;;;;;;-10.47;100.00;101735.19;31501570;28;20049;-80
2023/01/10 22:08:44;;;;;;;4.03;3.07;;;;;;;-10.65;100.00;101727.56;31477415;28;20048;-81
2023/01/10 22:23:46;;;;;;;3.47;3.20;;;;;;;-10.51;100.00;101705.22;31460418;28;20136;-80
2023/01/10 22:38:49;;;;;;;3.43;3.20;;;;;;;-10.64;100.00;101708.97;31449025;28;20096;-91
2023/01/10 22:53:57;;;;;;;3.43;3.23;;;;;;;-10.81;100.00;101729.91;31550521;28;20044;-92
2023/01/10 23:08:59;;;;;;;3.47;3.27;;;;;;;-10.98;100.00;101725.69;31509443;28;20052;-80
2023/01/10 23:24:01;;;;;;;3.70;3.10;;;;;;;-10.84;100.00;101727.75;31477812;28;20056;-80
2023/01/10 23:39:03;;;;;;;4.07;3.77;;;;;;;-10.90;100.00;101728.72;31518087;28;20049;-78
2023/01/10 23:54:05;;;;;;;3.23;3.03;;;;;;;-10.92;100.00;101709.78;31462633;28;20106;-79
